< < Back
Terminal Aerodrome Forecast


Current Version              Previous Versions:   1  2  3  4  5  6  7  8  9  

Terminal Aerodrome Forecast

934
FTUS44 KOHX 212300
TAFBNA
TAF
KBNA 212331Z 2200/2224 01005KT P6SM SKC=

Latest METAR

374
SAUS70 KWBC 220500 RRB
MTRBNA
METAR KBNA 220453Z 01004KT 10SM CLR 11/06 A3015 RMK AO2 SLP206
T01110061


USA.gov is the U.S. government's official web portal to all federal, state and local government web resources and services.